sensor_id;sensor_type;location;lat;lon;timestamp;P1;durP1;ratioP1;P2;durP2;ratioP2
73779;SDS011;62093;37.614;15.072;2022-10-16T00:02:02;8.60;;;5.60;;
73779;SDS011;62093;37.614;15.072;2022-10-16T00:04:28;9.20;;;5.97;;
73779;SDS011;62093;37.614;15.072;2022-10-16T00:06:53;10.82;;;6.32;;
73779;SDS011;62093;37.614;15.072;2022-10-16T00:09:19;9.93;;;5.17;;
73779;SDS011;62093;37.614;15.072;2022-10-16T00:11:45;9.25;;;6.30;;
73779;SDS011;62093;37.614;15.072;2022-10-16T00:14:12;9.30;;;6.05;;
73779;SDS011;62093;37.614;15.072;2022-10-16T00:16:40;9.30;;;5.90;;
73779;SDS011;62093;37.614;15.072;2022-10-16T00:19:06;9.38;;;6.05;;
73779;SDS011;62093;37.614;15.072;2022-10-16T00:21:33;9.80;;;5.97;;
73779;SDS011;62093;37.614;15.072;2022-10-16T00:24:00;9.40;;;5.95;;
73779;SDS011;62093;37.614;15.072;2022-10-16T00:26:29;8.32;;;5.50;;
73779;SDS011;62093;37.614;15.072;2022-10-16T00:28:56;9.57;;;5.67;;
73779;SDS011;62093;37.614;15.072;2022-10-16T00:31:22;9.75;;;6.13;;
73779;SDS011;62093;37.614;15.072;2022-10-16T00:33:49;8.80;;;5.55;;
73779;SDS011;62093;37.614;15.072;2022-10-16T00:36:16;10.68;;;5.80;;
73779;SDS011;62093;37.614;15.072;2022-10-16T00:38:43;10.60;;;5.47;;
73779;SDS011;62093;37.614;15.072;2022-10-16T00:41:11;10.23;;;5.10;;
73779;SDS011;62093;37.614;15.072;2022-10-16T00:43:40;9.45;;;5.60;;
73779;SDS011;62093;37.614;15.072;2022-10-16T00:51:21;9.97;;;5.00;;
73779;SDS011;62093;37.614;15.072;2022-10-16T00:53:53;8.48;;;5.20;;
73779;SDS011;62093;37.614;15.072;2022-10-16T00:56:20;7.47;;;5.30;;
73779;SDS011;62093;37.614;15.072;2022-10-16T00:58:46;9.60;;;5.25;;
73779;SDS011;62093;37.614;15.072;2022-10-16T01:01:12;8.23;;;5.40;;
73779;SDS011;62093;37.614;15.072;2022-10-16T01:03:38;8.97;;;4.80;;
73779;SDS011;62093;37.614;15.072;2022-10-16T01:06:18;7.93;;;5.22;;
73779;SDS011;62093;37.614;15.072;2022-10-16T01:09:11;9.15;;;4.85;;
73779;SDS011;62093;37.614;15.072;2022-10-16T01:14:20;8.77;;;4.70;;
73779;SDS011;62093;37.614;15.072;2022-10-16T01:16:53;7.40;;;4.30;;
73779;SDS011;62093;37.614;15.072;2022-10-16T01:22:37;7.57;;;4.72;;
73779;SDS011;62093;37.614;15.072;2022-10-16T01:25:09;7.90;;;4.57;;
73779;SDS011;62093;37.614;15.072;2022-10-16T01:27:41;9.18;;;5.25;;
73779;SDS011;62093;37.614;15.072;2022-10-16T01:30:17;9.30;;;4.73;;
73779;SDS011;62093;37.614;15.072;2022-10-16T01:35:41;7.72;;;4.82;;
73779;SDS011;62093;37.614;15.072;2022-10-16T01:38:19;7.18;;;4.68;;
73779;SDS011;62093;37.614;15.072;2022-10-16T01:40:49;7.28;;;4.47;;
73779;SDS011;62093;37.614;15.072;2022-10-16T01:43:25;7.60;;;4.53;;
73779;SDS011;62093;37.614;15.072;2022-10-16T01:45:54;8.20;;;4.95;;
73779;SDS011;62093;37.614;15.072;2022-10-16T01:48:21;8.90;;;4.70;;
73779;SDS011;62093;37.614;15.072;2022-10-16T01:51:03;7.65;;;5.00;;
73779;SDS011;62093;37.614;15.072;2022-10-16T01:53:35;7.80;;;4.75;;
73779;SDS011;62093;37.614;15.072;2022-10-16T01:56:02;8.07;;;4.97;;
73779;SDS011;62093;37.614;15.072;2022-10-16T01:58:30;7.60;;;4.60;;
73779;SDS011;62093;37.614;15.072;2022-10-16T02:01:01;8.68;;;5.10;;
73779;SDS011;62093;37.614;15.072;2022-10-16T02:03:28;7.85;;;4.68;;
73779;SDS011;62093;37.614;15.072;2022-10-16T02:05:55;7.83;;;4.70;;
73779;SDS011;62093;37.614;15.072;2022-10-16T02:08:23;8.45;;;5.00;;
73779;SDS011;62093;37.614;15.072;2022-10-16T02:10:51;9.13;;;4.97;;
73779;SDS011;62093;37.614;15.072;2022-10-16T02:13:19;8.07;;;4.85;;
73779;SDS011;62093;37.614;15.072;2022-10-16T02:15:51;8.45;;;5.50;;
73779;SDS011;62093;37.614;15.072;2022-10-16T02:18:20;9.77;;;6.60;;
73779;SDS011;62093;37.614;15.072;2022-10-16T02:24:08;9.70;;;5.75;;
73779;SDS011;62093;37.614;15.072;2022-10-16T02:27:15;8.30;;;4.88;;
73779;SDS011;62093;37.614;15.072;2022-10-16T02:29:39;8.07;;;4.93;;
73779;SDS011;62093;37.614;15.072;2022-10-16T02:32:10;8.07;;;4.50;;
73779;SDS011;62093;37.614;15.072;2022-10-16T02:34:38;8.25;;;4.40;;
73779;SDS011;62093;37.614;15.072;2022-10-16T02:37:05;9.45;;;5.22;;
73779;SDS011;62093;37.614;15.072;2022-10-16T02:39:32;8.80;;;6.03;;
73779;SDS011;62093;37.614;15.072;2022-10-16T02:41:58;9.93;;;5.72;;
73779;SDS011;62093;37.614;15.072;2022-10-16T02:44:24;9.33;;;5.70;;
73779;SDS011;62093;37.614;15.072;2022-10-16T02:46:50;7.78;;;5.53;;
73779;SDS011;62093;37.614;15.072;2022-10-16T02:49:16;8.80;;;4.90;;
73779;SDS011;62093;37.614;15.072;2022-10-16T02:51:43;9.13;;;4.65;;
73779;SDS011;62093;37.614;15.072;2022-10-16T02:54:09;8.57;;;4.75;;
73779;SDS011;62093;37.614;15.072;2022-10-16T02:56:34;6.80;;;4.65;;
73779;SDS011;62093;37.614;15.072;2022-10-16T02:59:00;9.80;;;5.13;;
73779;SDS011;62093;37.614;15.072;2022-10-16T03:01:26;8.30;;;4.75;;
73779;SDS011;62093;37.614;15.072;2022-10-16T03:03:52;7.40;;;4.63;;
73779;SDS011;62093;37.614;15.072;2022-10-16T03:06:18;9.97;;;5.07;;
73779;SDS011;62093;37.614;15.072;2022-10-16T03:08:44;7.60;;;4.47;;
73779;SDS011;62093;37.614;15.072;2022-10-16T03:11:09;8.57;;;5.57;;
73779;SDS011;62093;37.614;15.072;2022-10-16T03:13:35;9.37;;;5.73;;
73779;SDS011;62093;37.614;15.072;2022-10-16T03:16:01;8.48;;;5.45;;
73779;SDS011;62093;37.614;15.072;2022-10-16T03:18:27;8.67;;;5.67;;
73779;SDS011;62093;37.614;15.072;2022-10-16T03:20:52;9.23;;;4.93;;
73779;SDS011;62093;37.614;15.072;2022-10-16T03:23:18;7.97;;;4.70;;
73779;SDS011;62093;37.614;15.072;2022-10-16T03:25:44;8.80;;;4.70;;
73779;SDS011;62093;37.614;15.072;2022-10-16T03:28:10;7.60;;;5.65;;
73779;SDS011;62093;37.614;15.072;2022-10-16T03:30:37;8.77;;;4.95;;
73779;SDS011;62093;37.614;15.072;2022-10-16T03:33:05;7.80;;;5.47;;
73779;SDS011;62093;37.614;15.072;2022-10-16T03:35:31;7.57;;;4.75;;
73779;SDS011;62093;37.614;15.072;2022-10-16T03:37:58;9.05;;;4.95;;
73779;SDS011;62093;37.614;15.072;2022-10-16T03:40:23;7.65;;;4.57;;
73779;SDS011;62093;37.614;15.072;2022-10-16T03:42:49;8.60;;;5.17;;
73779;SDS011;62093;37.614;15.072;2022-10-16T03:45:15;8.82;;;4.90;;
73779;SDS011;62093;37.614;15.072;2022-10-16T03:47:41;7.37;;;4.37;;
73779;SDS011;62093;37.614;15.072;2022-10-16T03:50:07;8.40;;;4.75;;
73779;SDS011;62093;37.614;15.072;2022-10-16T03:52:33;8.23;;;4.85;;
73779;SDS011;62093;37.614;15.072;2022-10-16T03:54:59;8.25;;;4.47;;
73779;SDS011;62093;37.614;15.072;2022-10-16T03:57:25;8.90;;;4.80;;
73779;SDS011;62093;37.614;15.072;2022-10-16T03:59:51;9.77;;;4.85;;
73779;SDS011;62093;37.614;15.072;2022-10-16T04:02:17;8.80;;;5.20;;
73779;SDS011;62093;37.614;15.072;2022-10-16T04:04:43;11.02;;;5.20;;
73779;SDS011;62093;37.614;15.072;2022-10-16T04:07:08;8.20;;;4.88;;
73779;SDS011;62093;37.614;15.072;2022-10-16T04:09:34;7.30;;;4.83;;
73779;SDS011;62093;37.614;15.072;2022-10-16T04:12:00;7.00;;;4.80;;
73779;SDS011;62093;37.614;15.072;2022-10-16T04:14:26;8.85;;;5.05;;
73779;SDS011;62093;37.614;15.072;2022-10-16T04:16:52;8.90;;;4.97;;
73779;SDS011;62093;37.614;15.072;2022-10-16T04:19:18;7.63;;;4.87;;
73779;SDS011;62093;37.614;15.072;2022-10-16T04:21:44;7.20;;;4.97;;
73779;SDS011;62093;37.614;15.072;2022-10-16T04:24:10;7.93;;;4.60;;
73779;SDS011;62093;37.614;15.072;2022-10-16T04:26:36;9.05;;;4.35;;
73779;SDS011;62093;37.614;15.072;2022-10-16T04:29:03;8.77;;;4.60;;
73779;SDS011;62093;37.614;15.072;2022-10-16T04:31:29;8.23;;;4.68;;
73779;SDS011;62093;37.614;15.072;2022-10-16T04:33:55;10.20;;;4.57;;
73779;SDS011;62093;37.614;15.072;2022-10-16T04:36:20;7.55;;;4.22;;
73779;SDS011;62093;37.614;15.072;2022-10-16T04:38:46;8.07;;;4.70;;
73779;SDS011;62093;37.614;15.072;2022-10-16T04:41:12;8.25;;;4.45;;
73779;SDS011;62093;37.614;15.072;2022-10-16T04:43:38;8.32;;;4.85;;
73779;SDS011;62093;37.614;15.072;2022-10-16T04:46:04;7.53;;;4.50;;
73779;SDS011;62093;37.614;15.072;2022-10-16T04:48:30;9.65;;;4.30;;
73779;SDS011;62093;37.614;15.072;2022-10-16T04:50:57;7.85;;;4.38;;
73779;SDS011;62093;37.614;15.072;2022-10-16T04:53:23;8.07;;;4.60;;
73779;SDS011;62093;37.614;15.072;2022-10-16T04:55:49;7.47;;;4.43;;
73779;SDS011;62093;37.614;15.072;2022-10-16T04:58:15;7.53;;;4.50;;
73779;SDS011;62093;37.614;15.072;2022-10-16T05:00:41;6.35;;;3.90;;
73779;SDS011;62093;37.614;15.072;2022-10-16T05:03:07;8.30;;;4.33;;
73779;SDS011;62093;37.614;15.072;2022-10-16T05:05:34;8.30;;;4.23;;
73779;SDS011;62093;37.614;15.072;2022-10-16T05:08:01;8.05;;;4.05;;
73779;SDS011;62093;37.614;15.072;2022-10-16T05:10:27;7.53;;;4.45;;
73779;SDS011;62093;37.614;15.072;2022-10-16T05:12:53;7.45;;;4.45;;
73779;SDS011;62093;37.614;15.072;2022-10-16T05:15:19;7.72;;;4.45;;
73779;SDS011;62093;37.614;15.072;2022-10-16T05:17:45;6.73;;;4.20;;
73779;SDS011;62093;37.614;15.072;2022-10-16T05:20:11;7.55;;;4.10;;
73779;SDS011;62093;37.614;15.072;2022-10-16T05:22:37;7.32;;;4.55;;
73779;SDS011;62093;37.614;15.072;2022-10-16T05:25:03;9.50;;;4.87;;
73779;SDS011;62093;37.614;15.072;2022-10-16T05:27:29;9.20;;;6.43;;
73779;SDS011;62093;37.614;15.072;2022-10-16T05:29:55;8.25;;;5.90;;
73779;SDS011;62093;37.614;15.072;2022-10-16T05:32:21;9.73;;;7.22;;
73779;SDS011;62093;37.614;15.072;2022-10-16T05:34:47;11.70;;;8.13;;
73779;SDS011;62093;37.614;15.072;2022-10-16T05:37:13;10.65;;;6.70;;
73779;SDS011;62093;37.614;15.072;2022-10-16T05:39:39;11.70;;;5.53;;
73779;SDS011;62093;37.614;15.072;2022-10-16T05:42:05;6.60;;;4.20;;
73779;SDS011;62093;37.614;15.072;2022-10-16T05:44:31;8.43;;;4.07;;
73779;SDS011;62093;37.614;15.072;2022-10-16T05:46:57;8.30;;;4.50;;
73779;SDS011;62093;37.614;15.072;2022-10-16T05:49:23;6.78;;;4.18;;
73779;SDS011;62093;37.614;15.072;2022-10-16T05:51:49;8.30;;;4.23;;
73779;SDS011;62093;37.614;15.072;2022-10-16T05:54:15;8.82;;;5.03;;
73779;SDS011;62093;37.614;15.072;2022-10-16T05:56:41;7.70;;;4.43;;
73779;SDS011;62093;37.614;15.072;2022-10-16T05:59:07;7.07;;;4.60;;
73779;SDS011;62093;37.614;15.072;2022-10-16T06:01:32;8.35;;;4.32;;
73779;SDS011;62093;37.614;15.072;2022-10-16T06:03:59;7.18;;;4.13;;
73779;SDS011;62093;37.614;15.072;2022-10-16T06:06:25;7.30;;;4.00;;
73779;SDS011;62093;37.614;15.072;2022-10-16T06:08:54;7.63;;;3.90;;
73779;SDS011;62093;37.614;15.072;2022-10-16T06:11:22;6.25;;;4.00;;
73779;SDS011;62093;37.614;15.072;2022-10-16T06:13:52;9.30;;;4.13;;
73779;SDS011;62093;37.614;15.072;2022-10-16T06:16:22;8.88;;;4.10;;
73779;SDS011;62093;37.614;15.072;2022-10-16T06:18:50;6.90;;;3.50;;
73779;SDS011;62093;37.614;15.072;2022-10-16T06:21:18;8.07;;;4.07;;
73779;SDS011;62093;37.614;15.072;2022-10-16T06:23:46;7.20;;;3.90;;
73779;SDS011;62093;37.614;15.072;2022-10-16T06:26:13;7.80;;;3.70;;
73779;SDS011;62093;37.614;15.072;2022-10-16T06:28:41;7.50;;;3.88;;
73779;SDS011;62093;37.614;15.072;2022-10-16T06:31:08;6.43;;;3.83;;
73779;SDS011;62093;37.614;15.072;2022-10-16T06:33:35;5.55;;;3.47;;
73779;SDS011;62093;37.614;15.072;2022-10-16T06:36:05;6.15;;;3.42;;
73779;SDS011;62093;37.614;15.072;2022-10-16T06:38:33;6.72;;;3.92;;
73779;SDS011;62093;37.614;15.072;2022-10-16T06:41:00;7.33;;;4.10;;
73779;SDS011;62093;37.614;15.072;2022-10-16T06:43:26;6.68;;;3.70;;
73779;SDS011;62093;37.614;15.072;2022-10-16T06:45:56;6.30;;;3.83;;
73779;SDS011;62093;37.614;15.072;2022-10-16T06:48:22;7.70;;;3.60;;
73779;SDS011;62093;37.614;15.072;2022-10-16T06:51:05;6.57;;;3.83;;
73779;SDS011;62093;37.614;15.072;2022-10-16T06:53:37;6.57;;;3.90;;
73779;SDS011;62093;37.614;15.072;2022-10-16T06:56:11;6.05;;;3.60;;
73779;SDS011;62093;37.614;15.072;2022-10-16T06:58:39;6.95;;;4.18;;
73779;SDS011;62093;37.614;15.072;2022-10-16T07:01:05;7.68;;;4.15;;
73779;SDS011;62093;37.614;15.072;2022-10-16T07:03:35;6.38;;;3.63;;
73779;SDS011;62093;37.614;15.072;2022-10-16T07:06:03;6.57;;;4.13;;
73779;SDS011;62093;37.614;15.072;2022-10-16T07:08:34;6.47;;;4.15;;
73779;SDS011;62093;37.614;15.072;2022-10-16T07:11:01;10.27;;;4.63;;
73779;SDS011;62093;37.614;15.072;2022-10-16T07:13:28;6.07;;;3.95;;
73779;SDS011;62093;37.614;15.072;2022-10-16T07:15:54;7.00;;;4.43;;
73779;SDS011;62093;37.614;15.072;2022-10-16T07:18:20;7.68;;;4.15;;
73779;SDS011;62093;37.614;15.072;2022-10-16T07:20:46;7.30;;;4.25;;
73779;SDS011;62093;37.614;15.072;2022-10-16T07:23:11;8.03;;;3.97;;
73779;SDS011;62093;37.614;15.072;2022-10-16T07:25:37;6.65;;;4.22;;
73779;SDS011;62093;37.614;15.072;2022-10-16T07:28:03;7.18;;;4.00;;
73779;SDS011;62093;37.614;15.072;2022-10-16T07:30:29;7.37;;;4.10;;
73779;SDS011;62093;37.614;15.072;2022-10-16T07:32:55;7.18;;;4.00;;
73779;SDS011;62093;37.614;15.072;2022-10-16T07:35:21;6.70;;;3.92;;
73779;SDS011;62093;37.614;15.072;2022-10-16T07:37:47;7.20;;;4.25;;
73779;SDS011;62093;37.614;15.072;2022-10-16T07:40:13;6.83;;;4.00;;
73779;SDS011;62093;37.614;15.072;2022-10-16T07:42:39;6.82;;;3.92;;
73779;SDS011;62093;37.614;15.072;2022-10-16T07:45:05;6.72;;;4.07;;
73779;SDS011;62093;37.614;15.072;2022-10-16T07:47:31;7.57;;;4.30;;
73779;SDS011;62093;37.614;15.072;2022-10-16T07:49:57;13.10;;;4.45;;
73779;SDS011;62093;37.614;15.072;2022-10-16T07:52:23;7.70;;;4.57;;
73779;SDS011;62093;37.614;15.072;2022-10-16T07:54:48;7.40;;;4.28;;
73779;SDS011;62093;37.614;15.072;2022-10-16T07:57:14;7.45;;;4.28;;
73779;SDS011;62093;37.614;15.072;2022-10-16T07:59:45;8.87;;;4.70;;
73779;SDS011;62093;37.614;15.072;2022-10-16T08:02:11;7.88;;;4.53;;
73779;SDS011;62093;37.614;15.072;2022-10-16T08:04:37;8.32;;;4.65;;
73779;SDS011;62093;37.614;15.072;2022-10-16T08:07:03;8.70;;;4.70;;
73779;SDS011;62093;37.614;15.072;2022-10-16T08:09:29;8.00;;;5.13;;
73779;SDS011;62093;37.614;15.072;2022-10-16T08:11:55;7.60;;;4.55;;
73779;SDS011;62093;37.614;15.072;2022-10-16T08:14:21;9.27;;;5.20;;
73779;SDS011;62093;37.614;15.072;2022-10-16T08:16:46;9.93;;;6.10;;
73779;SDS011;62093;37.614;15.072;2022-10-16T08:19:12;9.63;;;5.00;;
73779;SDS011;62093;37.614;15.072;2022-10-16T08:21:38;11.87;;;6.30;;
73779;SDS011;62093;37.614;15.072;2022-10-16T08:24:04;10.63;;;6.10;;
73779;SDS011;62093;37.614;15.072;2022-10-16T08:26:30;10.15;;;6.13;;
73779;SDS011;62093;37.614;15.072;2022-10-16T08:28:56;10.27;;;5.80;;
73779;SDS011;62093;37.614;15.072;2022-10-16T08:31:22;10.52;;;6.35;;
73779;SDS011;62093;37.614;15.072;2022-10-16T08:33:48;9.20;;;5.93;;
73779;SDS011;62093;37.614;15.072;2022-10-16T08:36:15;10.65;;;5.93;;
73779;SDS011;62093;37.614;15.072;2022-10-16T08:38:41;10.20;;;6.22;;
73779;SDS011;62093;37.614;15.072;2022-10-16T08:44:03;10.27;;;6.03;;
73779;SDS011;62093;37.614;15.072;2022-10-16T08:46:42;8.95;;;6.10;;
73779;SDS011;62093;37.614;15.072;2022-10-16T08:49:36;10.88;;;6.38;;
73779;SDS011;62093;37.614;15.072;2022-10-16T08:52:08;9.60;;;5.50;;
73779;SDS011;62093;37.614;15.072;2022-10-16T08:54:39;11.13;;;5.50;;
73779;SDS011;62093;37.614;15.072;2022-10-16T08:57:26;10.85;;;6.28;;
73779;SDS011;62093;37.614;15.072;2022-10-16T08:59:52;10.75;;;6.30;;
73779;SDS011;62093;37.614;15.072;2022-10-16T09:15:52;13.00;;;6.75;;
73779;SDS011;62093;37.614;15.072;2022-10-16T09:18:40;11.53;;;6.40;;
73779;SDS011;62093;37.614;15.072;2022-10-16T09:21:37;11.82;;;6.43;;
73779;SDS011;62093;37.614;15.072;2022-10-16T09:24:12;12.13;;;6.57;;
73779;SDS011;62093;37.614;15.072;2022-10-16T09:26:40;13.70;;;6.32;;
73779;SDS011;62093;37.614;15.072;2022-10-16T09:29:14;11.23;;;6.28;;
73779;SDS011;62093;37.614;15.072;2022-10-16T09:31:42;12.17;;;6.40;;
73779;SDS011;62093;37.614;15.072;2022-10-16T09:34:14;11.40;;;6.10;;
73779;SDS011;62093;37.614;15.072;2022-10-16T09:36:45;11.98;;;6.60;;
73779;SDS011;62093;37.614;15.072;2022-10-16T09:39:12;11.18;;;6.18;;
73779;SDS011;62093;37.614;15.072;2022-10-16T09:41:39;12.82;;;6.53;;
73779;SDS011;62093;37.614;15.072;2022-10-16T09:44:40;15.37;;;6.87;;
73779;SDS011;62093;37.614;15.072;2022-10-16T09:47:12;12.07;;;6.30;;
73779;SDS011;62093;37.614;15.072;2022-10-16T09:49:39;11.27;;;6.93;;
73779;SDS011;62093;37.614;15.072;2022-10-16T09:52:18;11.20;;;6.90;;
73779;SDS011;62093;37.614;15.072;2022-10-16T09:54:51;12.38;;;6.75;;
73779;SDS011;62093;37.614;15.072;2022-10-16T09:57:18;12.43;;;6.90;;
73779;SDS011;62093;37.614;15.072;2022-10-16T09:59:45;11.70;;;7.78;;
73779;SDS011;62093;37.614;15.072;2022-10-16T10:02:16;11.40;;;7.00;;
73779;SDS011;62093;37.614;15.072;2022-10-16T10:04:50;12.80;;;7.53;;
73779;SDS011;62093;37.614;15.072;2022-10-16T10:07:30;10.02;;;6.63;;
73779;SDS011;62093;37.614;15.072;2022-10-16T10:09:59;12.07;;;7.40;;
73779;SDS011;62093;37.614;15.072;2022-10-16T10:12:32;13.10;;;7.22;;
73779;SDS011;62093;37.614;15.072;2022-10-16T10:15:06;12.75;;;7.05;;
73779;SDS011;62093;37.614;15.072;2022-10-16T10:17:45;13.82;;;7.28;;
73779;SDS011;62093;37.614;15.072;2022-10-16T10:20:23;16.67;;;7.88;;
73779;SDS011;62093;37.614;15.072;2022-10-16T10:22:53;15.70;;;7.57;;
73779;SDS011;62093;37.614;15.072;2022-10-16T10:25:26;12.63;;;6.97;;
73779;SDS011;62093;37.614;15.072;2022-10-16T10:33:50;12.83;;;7.17;;
73779;SDS011;62093;37.614;15.072;2022-10-16T10:46:57;11.13;;;6.82;;
73779;SDS011;62093;37.614;15.072;2022-10-16T10:55:20;12.73;;;6.33;;
73779;SDS011;62093;37.614;15.072;2022-10-16T10:57:59;12.15;;;6.90;;
73779;SDS011;62093;37.614;15.072;2022-10-16T11:05:56;12.75;;;6.68;;
73779;SDS011;62093;37.614;15.072;2022-10-16T11:08:35;18.87;;;13.17;;
73779;SDS011;62093;37.614;15.072;2022-10-16T11:11:32;19.70;;;13.18;;
73779;SDS011;62093;37.614;15.072;2022-10-16T11:14:05;15.80;;;10.07;;
73779;SDS011;62093;37.614;15.072;2022-10-16T11:19:41;17.58;;;9.88;;
73779;SDS011;62093;37.614;15.072;2022-10-16T11:22:20;20.27;;;10.33;;
73779;SDS011;62093;37.614;15.072;2022-10-16T11:25:06;21.67;;;11.65;;
73779;SDS011;62093;37.614;15.072;2022-10-16T11:30:33;18.00;;;10.90;;
73779;SDS011;62093;37.614;15.072;2022-10-16T11:38:31;19.15;;;10.65;;
73779;SDS011;62093;37.614;15.072;2022-10-16T11:40:54;16.58;;;11.00;;
73779;SDS011;62093;37.614;15.072;2022-10-16T11:43:28;14.90;;;9.15;;
73779;SDS011;62093;37.614;15.072;2022-10-16T11:46:19;15.80;;;10.07;;
73779;SDS011;62093;37.614;15.072;2022-10-16T11:51:43;13.88;;;9.73;;
73779;SDS011;62093;37.614;15.072;2022-10-16T11:54:51;15.70;;;10.00;;
73779;SDS011;62093;37.614;15.072;2022-10-16T11:57:51;13.63;;;9.23;;
73779;SDS011;62093;37.614;15.072;2022-10-16T12:00:28;13.88;;;9.43;;
73779;SDS011;62093;37.614;15.072;2022-10-16T12:08:35;12.77;;;9.18;;
73779;SDS011;62093;37.614;15.072;2022-10-16T12:11:36;12.25;;;8.93;;
73779;SDS011;62093;37.614;15.072;2022-10-16T12:16:38;15.87;;;9.00;;
73779;SDS011;62093;37.614;15.072;2022-10-16T12:19:28;13.25;;;9.02;;
73779;SDS011;62093;37.614;15.072;2022-10-16T12:21:56;14.07;;;9.05;;
73779;SDS011;62093;37.614;15.072;2022-10-16T12:24:37;12.45;;;8.32;;
73779;SDS011;62093;37.614;15.072;2022-10-16T12:29:54;14.77;;;8.77;;
73779;SDS011;62093;37.614;15.072;2022-10-16T12:32:38;14.73;;;9.02;;
73779;SDS011;62093;37.614;15.072;2022-10-16T12:35:05;12.73;;;8.45;;
73779;SDS011;62093;37.614;15.072;2022-10-16T12:37:42;14.10;;;8.30;;
73779;SDS011;62093;37.614;15.072;2022-10-16T12:40:14;12.75;;;8.32;;
73779;SDS011;62093;37.614;15.072;2022-10-16T12:42:49;12.43;;;8.33;;
73779;SDS011;62093;37.614;15.072;2022-10-16T12:45:25;13.68;;;8.80;;
73779;SDS011;62093;37.614;15.072;2022-10-16T12:47:56;13.82;;;9.20;;
73779;SDS011;62093;37.614;15.072;2022-10-16T12:52:52;15.82;;;9.30;;
73779;SDS011;62093;37.614;15.072;2022-10-16T12:55:19;13.30;;;8.90;;
73779;SDS011;62093;37.614;15.072;2022-10-16T13:03:18;14.52;;;10.00;;
73779;SDS011;62093;37.614;15.072;2022-10-16T13:06:14;17.90;;;10.10;;
73779;SDS011;62093;37.614;15.072;2022-10-16T13:20:25;12.73;;;9.13;;
73779;SDS011;62093;37.614;15.072;2022-10-16T13:23:20;44.90;;;21.73;;
73779;SDS011;62093;37.614;15.072;2022-10-16T13:29:00;30.25;;;15.43;;
73779;SDS011;62093;37.614;15.072;2022-10-16T13:31:26;21.83;;;12.43;;
73779;SDS011;62093;37.614;15.072;2022-10-16T13:33:55;20.75;;;12.60;;
73779;SDS011;62093;37.614;15.072;2022-10-16T13:36:28;22.40;;;12.93;;
73779;SDS011;62093;37.614;15.072;2022-10-16T13:39:15;22.08;;;12.35;;
73779;SDS011;62093;37.614;15.072;2022-10-16T13:44:48;19.20;;;11.50;;
73779;SDS011;62093;37.614;15.072;2022-10-16T13:49:46;17.60;;;11.00;;
73779;SDS011;62093;37.614;15.072;2022-10-16T13:52:17;17.90;;;10.70;;
73779;SDS011;62093;37.614;15.072;2022-10-16T13:54:45;15.70;;;10.85;;
73779;SDS011;62093;37.614;15.072;2022-10-16T13:57:14;16.98;;;10.60;;
73779;SDS011;62093;37.614;15.072;2022-10-16T13:59:41;17.10;;;9.93;;
73779;SDS011;62093;37.614;15.072;2022-10-16T14:05:14;15.52;;;9.43;;
73779;SDS011;62093;37.614;15.072;2022-10-16T14:07:41;14.43;;;9.43;;
73779;SDS011;62093;37.614;15.072;2022-10-16T14:10:22;14.30;;;9.05;;
73779;SDS011;62093;37.614;15.072;2022-10-16T14:12:58;17.25;;;9.57;;
73779;SDS011;62093;37.614;15.072;2022-10-16T14:15:33;17.07;;;10.60;;
73779;SDS011;62093;37.614;15.072;2022-10-16T14:18:02;19.63;;;11.77;;
73779;SDS011;62093;37.614;15.072;2022-10-16T14:20:33;29.13;;;15.20;;
73779;SDS011;62093;37.614;15.072;2022-10-16T14:23:04;16.35;;;10.27;;
73779;SDS011;62093;37.614;15.072;2022-10-16T14:25:47;14.95;;;9.65;;
73779;SDS011;62093;37.614;15.072;2022-10-16T14:28:19;13.77;;;8.63;;
73779;SDS011;62093;37.614;15.072;2022-10-16T14:30:56;14.48;;;9.43;;
73779;SDS011;62093;37.614;15.072;2022-10-16T14:38:34;13.32;;;8.52;;
73779;SDS011;62093;37.614;15.072;2022-10-16T14:41:10;14.37;;;8.60;;
73779;SDS011;62093;37.614;15.072;2022-10-16T14:43:41;13.15;;;8.73;;
73779;SDS011;62093;37.614;15.072;2022-10-16T14:46:15;15.18;;;8.23;;
73779;SDS011;62093;37.614;15.072;2022-10-16T14:49:18;13.20;;;8.05;;
73779;SDS011;62093;37.614;15.072;2022-10-16T14:51:51;12.63;;;7.93;;
73779;SDS011;62093;37.614;15.072;2022-10-16T14:54:18;11.90;;;8.03;;
73779;SDS011;62093;37.614;15.072;2022-10-16T14:56:55;12.77;;;8.55;;
73779;SDS011;62093;37.614;15.072;2022-10-16T14:59:41;14.30;;;8.40;;
73779;SDS011;62093;37.614;15.072;2022-10-16T15:02:32;12.55;;;7.90;;
73779;SDS011;62093;37.614;15.072;2022-10-16T15:05:13;12.75;;;8.27;;
73779;SDS011;62093;37.614;15.072;2022-10-16T15:07:54;12.80;;;7.70;;
73779;SDS011;62093;37.614;15.072;2022-10-16T15:10:21;13.88;;;8.50;;
73779;SDS011;62093;37.614;15.072;2022-10-16T15:12:48;12.48;;;8.02;;
73779;SDS011;62093;37.614;15.072;2022-10-16T15:17:46;15.02;;;8.90;;
73779;SDS011;62093;37.614;15.072;2022-10-16T15:20:13;13.17;;;8.10;;
73779;SDS011;62093;37.614;15.072;2022-10-16T15:22:39;16.27;;;10.07;;
73779;SDS011;62093;37.614;15.072;2022-10-16T15:25:12;14.98;;;9.85;;
73779;SDS011;62093;37.614;15.072;2022-10-16T15:28:03;18.50;;;10.10;;
73779;SDS011;62093;37.614;15.072;2022-10-16T15:30:30;15.00;;;10.38;;
73779;SDS011;62093;37.614;15.072;2022-10-16T15:32:56;15.40;;;10.30;;
73779;SDS011;62093;37.614;15.072;2022-10-16T15:35:22;13.85;;;9.77;;
73779;SDS011;62093;37.614;15.072;2022-10-16T15:37:48;14.43;;;9.90;;
73779;SDS011;62093;37.614;15.072;2022-10-16T15:40:14;15.38;;;10.52;;
73779;SDS011;62093;37.614;15.072;2022-10-16T15:42:42;16.52;;;11.40;;
73779;SDS011;62093;37.614;15.072;2022-10-16T15:45:08;17.30;;;11.23;;
73779;SDS011;62093;37.614;15.072;2022-10-16T15:47:35;19.88;;;12.13;;
73779;SDS011;62093;37.614;15.072;2022-10-16T15:50:02;18.27;;;11.70;;
73779;SDS011;62093;37.614;15.072;2022-10-16T15:52:29;17.92;;;12.40;;
73779;SDS011;62093;37.614;15.072;2022-10-16T15:54:57;18.23;;;12.03;;
73779;SDS011;62093;37.614;15.072;2022-10-16T15:57:23;17.05;;;11.63;;
73779;SDS011;62093;37.614;15.072;2022-10-16T15:59:50;17.50;;;12.18;;
73779;SDS011;62093;37.614;15.072;2022-10-16T16:02:16;16.20;;;11.15;;
73779;SDS011;62093;37.614;15.072;2022-10-16T16:04:42;18.13;;;11.77;;
73779;SDS011;62093;37.614;15.072;2022-10-16T16:07:08;17.73;;;11.30;;
73779;SDS011;62093;37.614;15.072;2022-10-16T16:09:34;18.63;;;12.32;;
73779;SDS011;62093;37.614;15.072;2022-10-16T16:12:00;18.58;;;12.23;;
73779;SDS011;62093;37.614;15.072;2022-10-16T16:14:26;17.02;;;11.13;;
73779;SDS011;62093;37.614;15.072;2022-10-16T16:16:53;20.25;;;13.70;;
73779;SDS011;62093;37.614;15.072;2022-10-16T16:19:20;20.77;;;14.33;;
73779;SDS011;62093;37.614;15.072;2022-10-16T16:21:47;20.50;;;13.40;;
73779;SDS011;62093;37.614;15.072;2022-10-16T16:24:13;18.95;;;13.90;;
73779;SDS011;62093;37.614;15.072;2022-10-16T16:26:39;19.92;;;13.80;;
73779;SDS011;62093;37.614;15.072;2022-10-16T16:29:12;20.70;;;14.02;;
73779;SDS011;62093;37.614;15.072;2022-10-16T16:31:40;21.33;;;13.53;;
73779;SDS011;62093;37.614;15.072;2022-10-16T16:34:07;19.45;;;14.43;;
73779;SDS011;62093;37.614;15.072;2022-10-16T16:36:33;18.77;;;13.95;;
73779;SDS011;62093;37.614;15.072;2022-10-16T16:39:00;21.55;;;14.77;;
73779;SDS011;62093;37.614;15.072;2022-10-16T16:41:27;20.77;;;14.75;;
73779;SDS011;62093;37.614;15.072;2022-10-16T16:43:55;20.93;;;14.10;;
73779;SDS011;62093;37.614;15.072;2022-10-16T16:46:27;21.55;;;14.07;;
73779;SDS011;62093;37.614;15.072;2022-10-16T16:48:53;30.05;;;15.90;;